Time;durP1;ratioP1;P1;durP2;ratioP2;P2;SDS_P1;SDS_P2;PMS_P1;PMS_P2;Temp;Humidity;BMP_temperature;BMP_pressure;BME280_temperature;BME280_humidity;BME280_pressure;Samples;Min_cycle;Max_cycle;Signal;HPM_P1;HPM_P2
2024/03/14 00:01:47;;;;;;;;;;;20.20;53.80;;;;;;1560172;76;697;-76
2024/03/14 00:03:50;;;;;;;;;;;20.30;54.00;;;;;;1566621;75;1114;-75
2024/03/14 00:05:53;;;;;;;;;;;20.30;54.00;;;;;;1561119;75;717;-79
2024/03/14 00:08:00;;;;;;;;;;;20.30;54.10;;;;;;1565241;75;758;-76
2024/03/14 00:09:59;;;;;;;;;;;20.30;54.10;;;;;;1551925;75;1627;-76
2024/03/14 00:12:00;;;;;;;;;;;20.30;54.10;;;;;;1555541;75;1948;-78
2024/03/14 00:14:03;;;;;;;;;;;20.20;54.10;;;;;;1560899;75;1156;-76
2024/03/14 00:16:05;;;;;;;;;;;20.30;54.20;;;;;;1559975;76;721;-75
2024/03/14 00:18:06;;;;;;;;;;;20.20;54.20;;;;;;1556869;76;1065;-77
2024/03/14 00:20:11;;;;;;;;;;;20.30;54.20;;;;;;1563557;75;700;-76
2024/03/14 00:22:12;;;;;;;;;;;20.20;54.20;;;;;;1564851;76;1676;-78
2024/03/14 00:24:16;;;;;;;;;;;20.20;54.20;;;;;;1561662;75;1125;-77
2024/03/14 00:26:18;;;;;;;;;;;20.20;54.20;;;;;;1560540;75;1075;-78
2024/03/14 00:28:19;;;;;;;;;;;20.30;54.40;;;;;;1563152;75;790;-76
2024/03/14 00:30:21;;;;;;;;;;;20.30;54.40;;;;;;1558226;75;1944;-76
2024/03/14 00:32:26;;;;;;;;;;;20.30;54.30;;;;;;1561075;75;1177;-77
2024/03/14 00:34:28;;;;;;;;;;;20.30;54.40;;;;;;1561025;76;744;-77
2024/03/14 00:36:30;;;;;;;;;;;20.20;54.30;;;;;;1561334;75;730;-77
2024/03/14 00:38:32;;;;;;;;;;;20.30;54.60;;;;;;1556933;75;750;-78
2024/03/14 00:40:35;;;;;;;;;;;20.20;54.40;;;;;;1559468;75;876;-77
2024/03/14 00:42:37;;;;;;;;;;;20.20;54.40;;;;;;1555285;76;1150;-78
2024/03/14 00:44:39;;;;;;;;;;;20.20;54.40;;;;;;1553673;75;1214;-78
2024/03/14 00:46:41;;;;;;;;;;;20.30;54.60;;;;;;1563895;75;620;-81
2024/03/14 00:48:43;;;;;;;;;;;20.30;54.70;;;;;;1562538;75;710;-80
2024/03/14 00:50:45;;;;;;;;;;;20.30;54.70;;;;;;1561991;76;1952;-75
2024/03/14 00:52:47;;;;;;;;;;;20.20;54.60;;;;;;1559384;75;1167;-76
2024/03/14 00:54:48;;;;;;;;;;;20.20;54.70;;;;;;1560676;75;773;-76
2024/03/14 00:56:52;;;;;;;;;;;20.20;54.60;;;;;;1559864;75;703;-78
2024/03/14 00:58:56;;;;;;;;;;;20.20;54.60;;;;;;1561892;75;601;-77
2024/03/14 01:00:57;;;;;;;;;;;20.30;54.80;;;;;;1553355;75;1635;-76
2024/03/14 01:02:59;;;;;;;;;;;20.20;54.70;;;;;;1561933;75;1201;-77
2024/03/14 01:05:04;;;;;;;;;;;20.30;54.80;;;;;;1560498;75;663;-78
2024/03/14 01:07:04;;;;;;;;;;;20.30;54.80;;;;;;1560156;76;1657;-76
2024/03/14 01:09:11;;;;;;;;;;;20.30;54.90;;;;;;1562589;75;704;-77
2024/03/14 01:11:10;;;;;;;;;;;20.30;54.80;;;;;;1561491;76;1902;-78
2024/03/14 01:13:12;;;;;;;;;;;20.30;54.90;;;;;;1562918;75;1092;-77
2024/03/14 01:15:15;;;;;;;;;;;20.30;54.90;;;;;;1556510;75;617;-78
2024/03/14 01:17:17;;;;;;;;;;;20.30;54.90;;;;;;1563199;75;2044;-78
2024/03/14 01:19:19;;;;;;;;;;;20.40;55.00;;;;;;1565918;75;667;-75
2024/03/14 01:21:21;;;;;;;;;;;20.30;54.90;;;;;;1549972;75;676;-82
2024/03/14 01:23:23;;;;;;;;;;;20.30;55.00;;;;;;1556074;75;1350;-76
2024/03/14 01:25:25;;;;;;;;;;;20.20;54.80;;;;;;1555346;75;627;-78
2024/03/14 01:27:27;;;;;;;;;;;20.30;55.00;;;;;;1554218;76;724;-76
2024/03/14 01:29:29;;;;;;;;;;;20.30;55.00;;;;;;1561554;76;719;-77
2024/03/14 01:31:32;;;;;;;;;;;20.30;55.00;;;;;;1561816;75;1930;-78
2024/03/14 01:33:34;;;;;;;;;;;20.30;55.00;;;;;;1556783;75;1227;-75
2024/03/14 01:35:36;;;;;;;;;;;20.30;55.00;;;;;;1561247;76;722;-77
2024/03/14 01:37:39;;;;;;;;;;;20.30;55.10;;;;;;1556807;75;757;-76
2024/03/14 01:39:41;;;;;;;;;;;20.30;55.10;;;;;;1563463;75;745;-79
2024/03/14 01:41:43;;;;;;;;;;;20.30;55.10;;;;;;1560853;75;731;-77
2024/03/14 01:43:46;;;;;;;;;;;20.30;55.10;;;;;;1557078;75;1142;-74
2024/03/14 01:45:48;;;;;;;;;;;20.40;55.10;;;;;;1555710;75;974;-77
2024/03/14 01:47:50;;;;;;;;;;;20.30;55.20;;;;;;1561907;75;713;-76
2024/03/14 01:49:52;;;;;;;;;;;20.30;55.20;;;;;;1557834;75;729;-77
2024/03/14 01:51:54;;;;;;;;;;;20.30;55.20;;;;;;1556272;75;1936;-78
2024/03/14 01:53:56;;;;;;;;;;;20.20;55.00;;;;;;1561217;75;1122;-77
2024/03/14 01:55:57;;;;;;;;;;;20.30;55.20;;;;;;1558522;75;737;-76
2024/03/14 01:57:59;;;;;;;;;;;20.30;55.20;;;;;;1561455;76;749;-77
2024/03/14 02:00:05;;;;;;;;;;;20.30;55.20;;;;;;1558976;75;735;-78
2024/03/14 02:02:06;;;;;;;;;;;20.30;55.20;;;;;;1561510;75;1026;-76
2024/03/14 02:04:17;;;;;;;;;;;20.20;55.10;;;;;;1556666;75;1118;-78
2024/03/14 02:06:23;;;;;;;;;;;20.30;55.20;;;;;;1558297;76;727;-77
2024/03/14 02:08:25;;;;;;;;;;;20.30;55.20;;;;;;1552545;75;1128;-78
2024/03/14 02:10:28;;;;;;;;;;;20.30;55.30;;;;;;1560018;75;739;-78
2024/03/14 02:12:30;;;;;;;;;;;20.30;55.30;;;;;;1562391;75;1924;-78
2024/03/14 02:14:32;;;;;;;;;;;20.30;55.30;;;;;;1553087;75;738;-76
2024/03/14 02:16:34;;;;;;;;;;;20.30;55.30;;;;;;1566761;75;701;-76
2024/03/14 02:18:35;;;;;;;;;;;20.30;55.40;;;;;;1554495;75;927;-80
2024/03/14 02:20:39;;;;;;;;;;;20.30;55.40;;;;;;1553099;75;700;-77
2024/03/14 02:22:41;;;;;;;;;;;20.30;55.40;;;;;;1556842;76;1671;-77
2024/03/14 02:24:43;;;;;;;;;;;20.30;55.40;;;;;;1553716;75;701;-78
2024/03/14 02:26:45;;;;;;;;;;;20.20;55.30;;;;;;1556786;75;706;-76
2024/03/14 02:28:47;;;;;;;;;;;20.30;55.50;;;;;;1552497;75;695;-76
2024/03/14 02:30:48;;;;;;;;;;;20.30;55.50;;;;;;1553928;75;706;-77
2024/03/14 02:32:51;;;;;;;;;;;20.30;55.50;;;;;;1548086;75;1948;-79
2024/03/14 02:34:53;;;;;;;;;;;20.30;55.50;;;;;;1551953;76;738;-77
2024/03/14 02:36:55;;;;;;;;;;;20.30;55.50;;;;;;1549940;75;703;-78
2024/03/14 02:38:57;;;;;;;;;;;20.30;55.50;;;;;;1551262;75;750;-76
2024/03/14 02:40:58;;;;;;;;;;;20.30;55.50;;;;;;1551320;75;692;-77
2024/03/14 02:43:00;;;;;;;;;;;20.30;55.50;;;;;;1554604;75;1134;-75
2024/03/14 02:45:03;;;;;;;;;;;20.30;55.50;;;;;;1555439;76;701;-75
2024/03/14 02:47:10;;;;;;;;;;;20.30;55.50;;;;;;1552784;75;772;-75
2024/03/14 02:49:14;;;;;;;;;;;20.30;55.50;;;;;;1554202;75;831;-76
2024/03/14 02:51:13;;;;;;;;;;;20.30;55.50;;;;;;1548732;76;1924;-77
2024/03/14 02:53:15;;;;;;;;;;;20.30;55.50;;;;;;1549634;75;1162;-76
2024/03/14 02:55:17;;;;;;;;;;;20.40;55.50;;;;;;1556510;75;853;-76
2024/03/14 02:57:19;;;;;;;;;;;20.30;55.50;;;;;;1550416;75;718;-78
2024/03/14 02:59:21;;;;;;;;;;;20.30;55.50;;;;;;1555408;75;664;-76
2024/03/14 03:01:23;;;;;;;;;;;20.30;55.50;;;;;;1549545;75;714;-76
2024/03/14 03:03:25;;;;;;;;;;;20.30;55.50;;;;;;1549040;75;1154;-77
2024/03/14 03:05:27;;;;;;;;;;;20.30;55.50;;;;;;1546157;76;716;-78
2024/03/14 03:07:32;;;;;;;;;;;20.30;55.60;;;;;;1553483;74;730;-78
2024/03/14 03:09:37;;;;;;;;;;;20.20;55.50;;;;;;1547940;75;1652;-76
2024/03/14 03:11:37;;;;;;;;;;;20.30;55.60;;;;;;1550369;75;1924;-81
2024/03/14 03:13:40;;;;;;;;;;;20.30;55.70;;;;;;1557264;75;1149;-75
2024/03/14 03:15:42;;;;;;;;;;;20.30;55.50;;;;;;1554985;75;728;-76
2024/03/14 03:17:44;;;;;;;;;;;20.30;55.60;;;;;;1556090;75;716;-78
2024/03/14 03:19:46;;;;;;;;;;;20.30;55.60;;;;;;1560861;75;1084;-76
2024/03/14 03:21:47;;;;;;;;;;;20.30;55.60;;;;;;1561290;75;820;-75
2024/03/14 03:23:49;;;;;;;;;;;20.20;55.70;;;;;;1560189;75;1209;-74
2024/03/14 03:25:51;;;;;;;;;;;20.30;55.70;;;;;;1562004;75;743;-74
2024/03/14 03:27:53;;;;;;;;;;;20.30;55.70;;;;;;1556042;75;779;-75
2024/03/14 03:29:55;;;;;;;;;;;20.30;55.70;;;;;;1555631;75;846;-77
2024/03/14 03:31:57;;;;;;;;;;;20.20;55.60;;;;;;1560117;75;1936;-74
2024/03/14 03:33:59;;;;;;;;;;;20.20;55.60;;;;;;1558659;75;1166;-75
2024/03/14 03:36:04;;;;;;;;;;;20.40;55.70;;;;;;1563637;75;713;-76
2024/03/14 03:38:09;;;;;;;;;;;20.30;55.70;;;;;;1558947;75;1718;-73
2024/03/14 03:40:14;;;;;;;;;;;20.30;55.60;;;;;;1560426;75;907;-74
2024/03/14 03:42:12;;;;;;;;;;;20.30;55.60;;;;;;1557758;75;1704;-77
2024/03/14 03:44:13;;;;;;;;;;;20.30;55.60;;;;;;1567416;75;1123;-74
2024/03/14 03:46:16;;;;;;;;;;;20.30;55.60;;;;;;1555211;75;750;-76
2024/03/14 03:48:17;;;;;;;;;;;20.30;55.70;;;;;;1559676;75;748;-74
2024/03/14 03:50:19;;;;;;;;;;;20.30;55.50;;;;;;1564691;75;768;-76
2024/03/14 03:52:21;;;;;;;;;;;20.30;55.70;;;;;;1555587;76;1930;-77
2024/03/14 03:54:23;;;;;;;;;;;20.30;55.50;;;;;;1559384;75;1158;-77
2024/03/14 03:56:25;;;;;;;;;;;20.30;55.50;;;;;;1563398;75;735;-75
2024/03/14 03:58:27;;;;;;;;;;;20.30;55.50;;;;;;1564615;75;739;-78
2024/03/14 04:00:44;;;;;;;;;;;20.30;55.60;;;;;;1558524;75;662;-77
2024/03/14 04:02:47;;;;;;;;;;;20.30;55.60;;;;;;1568188;75;1146;-75
2024/03/14 04:04:49;;;;;;;;;;;20.30;55.70;;;;;;1561649;75;762;-75
2024/03/14 04:06:51;;;;;;;;;;;20.30;55.60;;;;;;1521476;77;643;-76
2024/03/14 04:08:54;;;;;;;;;;;20.30;55.60;;;;;;1566400;75;682;-77
2024/03/14 04:10:56;;;;;;;;;;;20.30;55.70;;;;;;1555086;75;688;-80
2024/03/14 04:13:00;;;;;;;;;;;20.30;55.60;;;;;;1563487;75;1908;-76
2024/03/14 04:15:02;;;;;;;;;;;20.20;55.50;;;;;;1560466;75;771;-78
2024/03/14 04:17:04;;;;;;;;;;;20.20;55.50;;;;;;1562774;75;671;-75
2024/03/14 04:19:06;;;;;;;;;;;20.30;55.60;;;;;;1566027;75;1007;-79
2024/03/14 04:21:10;;;;;;;;;;;20.30;55.60;;;;;;1564537;75;631;-75
2024/03/14 04:23:12;;;;;;;;;;;20.30;55.60;;;;;;1566692;75;1244;-76
2024/03/14 04:25:17;;;;;;;;;;;20.30;55.50;;;;;;1551956;75;768;-77
2024/03/14 04:27:20;;;;;;;;;;;20.20;55.50;;;;;;1560098;75;689;-77
2024/03/14 04:29:22;;;;;;;;;;;20.20;55.50;;;;;;1561736;75;743;-75
2024/03/14 04:31:24;;;;;;;;;;;20.20;55.50;;;;;;1562684;75;739;-77
2024/03/14 04:33:25;;;;;;;;;;;20.30;55.60;;;;;;1557056;75;1953;-77
2024/03/14 04:35:28;;;;;;;;;;;20.30;55.60;;;;;;1559475;75;729;-77
2024/03/14 04:37:30;;;;;;;;;;;20.20;55.50;;;;;;1558793;75;690;-78
2024/03/14 04:39:32;;;;;;;;;;;20.30;55.50;;;;;;1564743;76;738;-75
2024/03/14 04:41:35;;;;;;;;;;;20.30;55.60;;;;;;1563411;75;731;-74
2024/03/14 04:43:37;;;;;;;;;;;20.30;55.50;;;;;;1567757;75;1106;-75
2024/03/14 04:45:40;;;;;;;;;;;20.30;55.50;;;;;;1557203;75;734;-76
2024/03/14 04:47:42;;;;;;;;;;;20.20;55.40;;;;;;1564604;75;728;-75
2024/03/14 04:49:44;;;;;;;;;;;20.20;55.40;;;;;;1564723;76;755;-80
2024/03/14 04:51:46;;;;;;;;;;;20.20;55.30;;;;;;1568040;75;662;-76
2024/03/14 04:53:48;;;;;;;;;;;20.30;55.50;;;;;;1558590;75;1942;-76
2024/03/14 04:55:54;;;;;;;;;;;20.30;55.50;;;;;;1559726;75;731;-77
2024/03/14 04:57:53;;;;;;;;;;;20.20;55.40;;;;;;1558613;75;1116;-76
2024/03/14 04:59:55;;;;;;;;;;;20.30;55.50;;;;;;1563445;75;785;-78
2024/03/14 05:01:57;;;;;;;;;;;20.20;55.40;;;;;;1568508;75;795;-71
2024/03/14 05:03:59;;;;;;;;;;;20.20;55.30;;;;;;1561140;75;1132;-72
2024/03/14 05:06:03;;;;;;;;;;;20.30;55.60;;;;;;1556356;75;674;-73
2024/03/14 05:08:04;;;;;;;;;;;20.20;55.40;;;;;;1561437;75;1941;-73
2024/03/14 05:10:07;;;;;;;;;;;20.20;55.30;;;;;;1566399;76;741;-73
2024/03/14 05:12:09;;;;;;;;;;;20.30;55.50;;;;;;1562946;76;1911;-74
2024/03/14 05:14:11;;;;;;;;;;;20.20;55.30;;;;;;1562601;75;1098;-73
2024/03/14 05:16:14;;;;;;;;;;;20.30;55.50;;;;;;1564126;75;701;-74
2024/03/14 05:18:16;;;;;;;;;;;20.20;55.20;;;;;;1556841;76;678;-72
2024/03/14 05:20:18;;;;;;;;;;;20.30;55.40;;;;;;1559928;74;961;-72
2024/03/14 05:22:20;;;;;;;;;;;20.20;55.30;;;;;;1560224;75;740;-72
2024/03/14 05:24:22;;;;;;;;;;;20.30;55.40;;;;;;1559885;75;1195;-72
2024/03/14 05:26:23;;;;;;;;;;;20.30;55.40;;;;;;1560173;75;724;-75
2024/03/14 05:28:26;;;;;;;;;;;20.20;55.20;;;;;;1570196;75;753;-75
2024/03/14 05:30:27;;;;;;;;;;;20.30;55.40;;;;;;1561042;75;739;-75
2024/03/14 05:32:29;;;;;;;;;;;20.30;55.50;;;;;;1560556;75;1946;-72
2024/03/14 05:34:32;;;;;;;;;;;20.20;55.40;;;;;;1557436;75;715;-73
2024/03/14 05:36:34;;;;;;;;;;;20.30;55.50;;;;;;1558933;75;699;-75
2024/03/14 05:38:36;;;;;;;;;;;20.30;55.50;;;;;;1571101;75;740;-74
2024/03/14 05:40:38;;;;;;;;;;;20.30;55.50;;;;;;1564552;75;636;-75
2024/03/14 05:42:40;;;;;;;;;;;20.20;55.40;;;;;;1564432;75;1190;-82
2024/03/14 05:44:42;;;;;;;;;;;20.30;55.60;;;;;;1556289;75;739;-72
2024/03/14 05:46:46;;;;;;;;;;;20.20;55.50;;;;;;1556458;75;737;-76
2024/03/14 05:48:48;;;;;;;;;;;20.30;55.60;;;;;;1560487;74;1668;-74
2024/03/14 05:50:49;;;;;;;;;;;20.30;55.60;;;;;;1561310;75;686;-73
2024/03/14 05:52:52;;;;;;;;;;;20.30;55.70;;;;;;1567493;75;1925;-76
2024/03/14 05:54:53;;;;;;;;;;;20.30;55.70;;;;;;1562691;75;749;-77
2024/03/14 05:56:55;;;;;;;;;;;20.40;56.00;;;;;;1559701;75;761;-77
2024/03/14 05:58:57;;;;;;;;;;;20.40;55.90;;;;;;1567486;75;749;-76
2024/03/14 06:01:03;;;;;;;;;;;20.30;55.90;;;;;;1559605;75;712;-75
2024/03/14 06:03:03;;;;;;;;;;;20.30;55.80;;;;;;1552456;75;1212;-77
2024/03/14 06:05:05;;;;;;;;;;;20.30;55.80;;;;;;1562757;75;765;-77
2024/03/14 06:07:07;;;;;;;;;;;20.40;55.80;;;;;;1554621;75;714;-76
2024/03/14 06:09:12;;;;;;;;;;;20.30;55.80;;;;;;1558494;75;577;-74
2024/03/14 06:11:14;;;;;;;;;;;20.30;55.70;;;;;;1550648;75;1761;-79
2024/03/14 06:13:16;;;;;;;;;;;20.30;55.70;;;;;;1560699;75;1950;-74
2024/03/14 06:15:18;;;;;;;;;;;20.30;55.70;;;;;;1541226;75;667;-74
2024/03/14 06:17:20;;;;;;;;;;;20.40;55.60;;;;;;1549591;75;712;-73
2024/03/14 06:19:21;;;;;;;;;;;20.30;55.70;;;;;;1556153;74;639;-75
2024/03/14 06:21:24;;;;;;;;;;;20.30;55.70;;;;;;1565269;75;984;-75
2024/03/14 06:23:26;;;;;;;;;;;20.30;55.70;;;;;;1562684;76;1217;-73
2024/03/14 06:25:28;;;;;;;;;;;20.30;55.70;;;;;;1563194;75;667;-75
2024/03/14 06:27:30;;;;;;;;;;;20.30;55.70;;;;;;1558991;76;912;-77
2024/03/14 06:29:32;;;;;;;;;;;20.30;55.60;;;;;;1525866;77;780;-73
2024/03/14 06:31:34;;;;;;;;;;;20.30;55.60;;;;;;1560446;76;720;-75
2024/03/14 06:33:38;;;;;;;;;;;20.30;55.60;;;;;;1559929;75;1953;-74
2024/03/14 06:35:40;;;;;;;;;;;20.30;55.60;;;;;;1557596;75;749;-74
2024/03/14 06:37:41;;;;;;;;;;;20.40;55.60;;;;;;1558207;76;755;-75
2024/03/14 06:39:45;;;;;;;;;;;20.30;55.50;;;;;;1552492;76;732;-75
2024/03/14 06:41:47;;;;;;;;;;;20.30;55.60;;;;;;1558101;75;713;-76
2024/03/14 06:43:49;;;;;;;;;;;20.30;55.60;;;;;;1565145;75;1157;-74
2024/03/14 06:45:51;;;;;;;;;;;20.30;55.60;;;;;;1555510;75;763;-77
2024/03/14 06:47:54;;;;;;;;;;;20.30;55.60;;;;;;1560568;76;726;-73
2024/03/14 06:50:03;;;;;;;;;;;20.30;55.60;;;;;;1559257;76;733;-75
2024/03/14 06:52:00;;;;;;;;;;;20.30;55.60;;;;;;1556855;75;1502;-77
2024/03/14 06:54:04;;;;;;;;;;;20.20;55.40;;;;;;1565529;76;1950;-74
2024/03/14 06:56:08;;;;;;;;;;;20.30;55.60;;;;;;1559006;75;590;-76
2024/03/14 06:58:11;;;;;;;;;;;20.30;55.50;;;;;;1558450;75;719;-75
2024/03/14 07:00:13;;;;;;;;;;;20.30;55.50;;;;;;1556547;75;706;-75
2024/03/14 07:02:18;;;;;;;;;;;20.30;55.50;;;;;;1556744;76;742;-73
2024/03/14 07:04:26;;;;;;;;;;;20.30;55.50;;;;;;1555436;76;1151;-75
2024/03/14 07:06:25;;;;;;;;;;;20.30;55.50;;;;;;1558467;75;1585;-74
2024/03/14 07:08:27;;;;;;;;;;;20.30;55.50;;;;;;1559988;76;1170;-75
2024/03/14 07:10:29;;;;;;;;;;;20.30;55.50;;;;;;1561289;75;752;-74
2024/03/14 07:12:33;;;;;;;;;;;20.30;55.50;;;;;;1562568;75;1130;-76
2024/03/14 07:14:35;;;;;;;;;;;20.30;55.50;;;;;;1553559;76;1905;-77
2024/03/14 07:16:38;;;;;;;;;;;20.30;55.50;;;;;;1560804;76;717;-76
2024/03/14 07:18:40;;;;;;;;;;;20.30;55.50;;;;;;1566785;76;737;-75
2024/03/14 07:20:45;;;;;;;;;;;20.30;55.50;;;;;;1557186;75;1112;-74
2024/03/14 07:22:46;;;;;;;;;;;20.20;55.30;;;;;;1554891;76;1626;-75
2024/03/14 07:24:48;;;;;;;;;;;20.30;55.40;;;;;;1551041;76;640;-76
2024/03/14 07:26:51;;;;;;;;;;;20.30;55.40;;;;;;1555373;75;734;-77
2024/03/14 07:28:53;;;;;;;;;;;20.30;55.40;;;;;;1554512;76;667;-74
2024/03/14 07:30:55;;;;;;;;;;;20.30;55.40;;;;;;1556046;76;717;-74
2024/03/14 07:33:00;;;;;;;;;;;20.20;55.20;;;;;;1546988;75;1918;-78
2024/03/14 07:35:02;;;;;;;;;;;20.30;55.40;;;;;;1552245;76;1733;-77
2024/03/14 07:37:04;;;;;;;;;;;20.30;55.40;;;;;;1552671;76;646;-72
2024/03/14 07:39:06;;;;;;;;;;;20.30;55.40;;;;;;1559717;76;816;-74
2024/03/14 07:41:08;;;;;;;;;;;20.20;55.20;;;;;;1552420;76;657;-74
2024/03/14 07:43:12;;;;;;;;;;;20.30;55.20;;;;;;1551216;75;1185;-75
2024/03/14 07:45:20;;;;;;;;;;;20.30;55.30;;;;;;1543146;76;1754;-74
2024/03/14 07:47:26;;;;;;;;;;;20.20;55.20;;;;;;1556095;76;679;-74
2024/03/14 07:49:26;;;;;;;;;;;20.30;55.30;;;;;;1544783;76;867;-75
2024/03/14 07:51:27;;;;;;;;;;;20.30;55.30;;;;;;1549287;76;683;-78
2024/03/14 07:53:30;;;;;;;;;;;20.20;55.20;;;;;;1551237;76;1956;-73
2024/03/14 07:55:32;;;;;;;;;;;20.30;55.20;;;;;;1548340;76;753;-77
2024/03/14 07:57:37;;;;;;;;;;;20.30;55.20;;;;;;1557566;76;750;-74
2024/03/14 07:59:39;;;;;;;;;;;20.30;55.20;;;;;;1538183;76;731;-73
2024/03/14 08:01:44;;;;;;;;;;;20.30;55.20;;;;;;1546255;76;658;-81
2024/03/14 08:03:48;;;;;;;;;;;20.20;55.10;;;;;;1556590;75;1167;-76
2024/03/14 08:05:50;;;;;;;;;;;20.30;55.20;;;;;;1552563;75;780;-73
2024/03/14 08:07:52;;;;;;;;;;;20.30;55.20;;;;;;1551625;75;767;-73
2024/03/14 08:09:56;;;;;;;;;;;20.30;55.20;;;;;;1549185;75;924;-75
2024/03/14 08:11:57;;;;;;;;;;;20.30;55.20;;;;;;1555754;75;985;-75
2024/03/14 08:14:06;;;;;;;;;;;20.20;55.00;;;;;;1553287;76;1962;-77
2024/03/14 08:16:14;;;;;;;;;;;20.20;55.00;;;;;;1551175;76;955;-73
2024/03/14 08:18:13;;;;;;;;;;;20.20;55.00;;;;;;1556269;75;1521;-74
2024/03/14 08:20:17;;;;;;;;;;;20.20;55.00;;;;;;1555951;76;693;-74
2024/03/14 08:22:19;;;;;;;;;;;20.20;55.00;;;;;;1557172;75;1087;-75
2024/03/14 08:24:21;;;;;;;;;;;20.30;55.10;;;;;;1545157;75;1127;-74
2024/03/14 08:26:23;;;;;;;;;;;20.20;55.00;;;;;;1553844;76;742;-75
2024/03/14 08:28:25;;;;;;;;;;;20.30;55.10;;;;;;1558675;76;703;-75
2024/03/14 08:30:28;;;;;;;;;;;20.20;55.00;;;;;;1555654;76;722;-75
2024/03/14 08:32:32;;;;;;;;;;;20.30;55.00;;;;;;1544598;76;1120;-74
2024/03/14 08:34:33;;;;;;;;;;;20.20;54.90;;;;;;1551186;75;1932;-74
2024/03/14 08:36:37;;;;;;;;;;;20.20;55.00;;;;;;1524582;77;692;-77
2024/03/14 08:38:39;;;;;;;;;;;20.20;55.00;;;;;;1540091;76;919;-74
2024/03/14 08:40:41;;;;;;;;;;;20.20;54.90;;;;;;1543145;76;730;-73
2024/03/14 08:42:45;;;;;;;;;;;20.30;55.00;;;;;;1538749;76;1211;-74
2024/03/14 08:44:46;;;;;;;;;;;20.30;55.00;;;;;;1551528;76;1146;-74
2024/03/14 08:46:48;;;;;;;;;;;20.20;54.90;;;;;;1550940;76;780;-73
2024/03/14 08:48:50;;;;;;;;;;;20.30;55.00;;;;;;1555944;76;716;-75
2024/03/14 08:50:52;;;;;;;;;;;20.30;55.00;;;;;;1555032;75;702;-76
2024/03/14 08:52:55;;;;;;;;;;;20.20;54.80;;;;;;1554334;76;1203;-77
2024/03/14 08:54:58;;;;;;;;;;;20.20;54.80;;;;;;1557595;76;1904;-75
2024/03/14 08:57:00;;;;;;;;;;;20.30;55.00;;;;;;1556523;75;761;-74
2024/03/14 08:59:02;;;;;;;;;;;20.30;55.00;;;;;;1559721;76;708;-76
2024/03/14 09:01:05;;;;;;;;;;;20.30;55.00;;;;;;1552719;76;675;-74
2024/03/14 09:03:07;;;;;;;;;;;20.30;55.00;;;;;;1552096;76;1141;-77
2024/03/14 09:05:11;;;;;;;;;;;20.30;55.00;;;;;;1557898;75;769;-73
2024/03/14 09:07:15;;;;;;;;;;;20.30;54.90;;;;;;1545850;76;1083;-73
2024/03/14 09:09:23;;;;;;;;;;;20.20;54.80;;;;;;1555393;76;712;-74
2024/03/14 09:11:27;;;;;;;;;;;20.20;54.80;;;;;;1553965;76;717;-74
2024/03/14 09:13:31;;;;;;;;;;;20.20;54.80;;;;;;1557380;76;1928;-73
2024/03/14 09:15:33;;;;;;;;;;;20.20;54.80;;;;;;1555290;76;949;-76
2024/03/14 09:17:35;;;;;;;;;;;20.20;54.70;;;;;;1558516;76;733;-73
2024/03/14 09:19:37;;;;;;;;;;;20.30;54.90;;;;;;1551423;76;772;-77
2024/03/14 09:21:39;;;;;;;;;;;20.20;54.70;;;;;;1555106;76;733;-74
2024/03/14 09:23:41;;;;;;;;;;;20.20;54.70;;;;;;1548490;76;1178;-74
2024/03/14 09:25:43;;;;;;;;;;;20.30;54.90;;;;;;1540017;76;775;-74
2024/03/14 09:27:44;;;;;;;;;;;20.30;54.90;;;;;;1548808;76;790;-77
2024/03/14 09:29:46;;;;;;;;;;;20.30;54.80;;;;;;1542148;76;744;-75
2024/03/14 09:31:55;;;;;;;;;;;20.30;54.80;;;;;;1556671;76;680;-73
2024/03/14 09:33:55;;;;;;;;;;;20.40;54.80;;;;;;1551615;75;1962;-75
2024/03/14 09:35:57;;;;;;;;;;;20.20;54.60;;;;;;1553225;76;772;-75
2024/03/14 09:37:58;;;;;;;;;;;20.20;54.60;;;;;;1558038;76;718;-76
2024/03/14 09:40:01;;;;;;;;;;;20.40;54.70;;;;;;1558045;75;725;-76
2024/03/14 09:42:03;;;;;;;;;;;20.30;54.70;;;;;;1558245;75;1032;-75
2024/03/14 09:44:04;;;;;;;;;;;20.30;54.70;;;;;;1553616;75;1179;-74
2024/03/14 09:46:06;;;;;;;;;;;20.30;54.70;;;;;;1548797;76;845;-74
2024/03/14 09:48:10;;;;;;;;;;;20.30;54.70;;;;;;1528427;77;681;-75
2024/03/14 09:50:18;;;;;;;;;;;20.30;54.70;;;;;;1554519;76;715;-73
2024/03/14 09:52:20;;;;;;;;;;;20.30;54.70;;;;;;1547841;76;666;-77
2024/03/14 09:54:25;;;;;;;;;;;20.30;54.70;;;;;;1560249;75;1955;-76
2024/03/14 09:56:26;;;;;;;;;;;20.30;54.70;;;;;;1550346;75;1018;-77
2024/03/14 09:58:28;;;;;;;;;;;20.30;54.60;;;;;;1553204;76;700;-75
2024/03/14 10:00:30;;;;;;;;;;;20.30;54.60;;;;;;1553905;76;741;-75
2024/03/14 10:02:32;;;;;;;;;;;20.40;54.60;;;;;;1549787;76;1154;-73
2024/03/14 10:04:35;;;;;;;;;;;20.40;54.50;;;;;;1558283;76;696;-74
2024/03/14 10:06:40;;;;;;;;;;;20.30;54.60;;;;;;1560081;75;713;-74
2024/03/14 10:08:47;;;;;;;;;;;20.40;54.60;;;;;;1557264;75;1120;-76
2024/03/14 10:10:50;;;;;;;;;;;20.40;54.50;;;;;;1550162;76;735;-73
2024/03/14 10:12:52;;;;;;;;;;;20.30;54.60;;;;;;1557475;76;1130;-74
2024/03/14 10:15:00;;;;;;;;;;;20.30;54.50;;;;;;1544240;75;1955;-76
2024/03/14 10:17:03;;;;;;;;;;;20.40;54.50;;;;;;1560867;75;740;-73
2024/03/14 10:19:06;;;;;;;;;;;20.30;54.50;;;;;;1548892;76;757;-75
2024/03/14 10:21:08;;;;;;;;;;;20.40;54.50;;;;;;1552333;75;723;-75
2024/03/14 10:23:12;;;;;;;;;;;20.40;54.50;;;;;;1550759;76;1169;-74
2024/03/14 10:25:14;;;;;;;;;;;20.40;54.40;;;;;;1566959;75;1102;-77
2024/03/14 10:27:17;;;;;;;;;;;20.40;54.50;;;;;;1562000;75;755;-74
2024/03/14 10:29:19;;;;;;;;;;;20.30;54.40;;;;;;1562947;76;727;-73
2024/03/14 10:31:21;;;;;;;;;;;20.40;54.40;;;;;;1558329;75;684;-74
2024/03/14 10:33:26;;;;;;;;;;;20.30;54.40;;;;;;1560485;75;1125;-74
2024/03/14 10:35:30;;;;;;;;;;;20.30;54.40;;;;;;1563653;75;1913;-75
2024/03/14 10:37:30;;;;;;;;;;;20.30;54.40;;;;;;1495809;79;1054;-75
2024/03/14 10:39:32;;;;;;;;;;;20.30;54.40;;;;;;1510774;78;671;-73
2024/03/14 10:41:34;;;;;;;;;;;20.40;54.40;;;;;;1509006;78;684;-74
2024/03/14 10:43:42;;;;;;;;;;;20.40;54.30;;;;;;1498329;78;1191;-77
2024/03/14 10:45:42;;;;;;;;;;;20.40;54.30;;;;;;1504267;78;847;-79
2024/03/14 10:47:44;;;;;;;;;;;20.50;54.30;;;;;;1517995;78;619;-73
2024/03/14 10:49:48;;;;;;;;;;;20.30;54.30;;;;;;1509089;78;722;-75
2024/03/14 10:51:51;;;;;;;;;;;20.40;54.30;;;;;;1515697;78;741;-79
2024/03/14 10:53:55;;;;;;;;;;;20.40;54.20;;;;;;1513708;78;1117;-75
2024/03/14 10:55:57;;;;;;;;;;;20.40;54.30;;;;;;1511037;78;1900;-77
2024/03/14 10:57:59;;;;;;;;;;;20.30;54.20;;;;;;1509101;78;729;-72
2024/03/14 11:00:00;;;;;;;;;;;20.50;54.40;;;;;;1501269;78;682;-74
2024/03/14 11:02:03;;;;;;;;;;;20.40;54.30;;;;;;1503028;78;713;-73
2024/03/14 11:04:11;;;;;;;;;;;20.50;54.30;;;;;;1513431;78;1157;-77
2024/03/14 11:06:10;;;;;;;;;;;20.40;54.30;;;;;;1498217;78;961;-76
2024/03/14 11:08:14;;;;;;;;;;;20.40;54.20;;;;;;1493584;78;1070;-73
2024/03/14 11:10:18;;;;;;;;;;;20.40;54.20;;;;;;1558493;75;677;-76
2024/03/14 11:12:26;;;;;;;;;;;20.30;54.20;;;;;;1559909;76;1610;-73
2024/03/14 11:14:26;;;;;;;;;;;20.30;54.20;;;;;;1558291;75;1928;-73
2024/03/14 11:16:28;;;;;;;;;;;20.40;54.20;;;;;;1562986;75;1519;-78
2024/03/14 11:18:32;;;;;;;;;;;20.40;54.20;;;;;;1556498;76;653;-74
2024/03/14 11:20:34;;;;;;;;;;;20.30;54.20;;;;;;1565496;75;736;-73
2024/03/14 11:22:37;;;;;;;;;;;20.40;54.20;;;;;;1550602;75;1169;-74
2024/03/14 11:24:39;;;;;;;;;;;20.50;54.20;;;;;;1556121;76;1375;-75
2024/03/14 11:26:43;;;;;;;;;;;20.30;54.10;;;;;;1547836;76;740;-73
2024/03/14 11:28:45;;;;;;;;;;;20.50;54.20;;;;;;1554033;75;722;-74
2024/03/14 11:30:56;;;;;;;;;;;20.40;54.20;;;;;;1550683;76;761;-73
2024/03/14 11:32:59;;;;;;;;;;;20.40;54.10;;;;;;1554266;75;1190;-78
2024/03/14 11:35:19;;;;;;;;;;;20.50;54.20;;;;;;1549965;76;1903;-75
2024/03/14 11:37:21;;;;;;;;;;;20.40;54.10;;;;;;1548022;76;755;-73
2024/03/14 11:39:26;;;;;;;;;;;20.40;54.10;;;;;;1559760;75;725;-74
2024/03/14 11:41:28;;;;;;;;;;;20.40;54.10;;;;;;1525625;76;718;-78
2024/03/14 11:43:33;;;;;;;;;;;20.40;54.10;;;;;;1550743;75;1094;-76
2024/03/14 11:45:36;;;;;;;;;;;20.50;54.20;;;;;;1544649;76;1134;-75
2024/03/14 11:47:41;;;;;;;;;;;20.40;54.10;;;;;;1552511;76;715;-74
2024/03/14 11:49:43;;;;;;;;;;;20.40;54.20;;;;;;1549260;76;704;-78
2024/03/14 11:51:47;;;;;;;;;;;20.50;54.20;;;;;;1546228;76;674;-77
2024/03/14 11:53:51;;;;;;;;;;;20.40;54.20;;;;;;1542911;76;1164;-74
2024/03/14 11:55:53;;;;;;;;;;;20.40;54.20;;;;;;1550960;75;1943;-75
2024/03/14 11:57:54;;;;;;;;;;;20.50;54.30;;;;;;1549435;75;743;-76
2024/03/14 12:00:08;;;;;;;;;;;20.40;54.20;;;;;;1542984;76;637;-74
2024/03/14 12:02:02;;;;;;;;;;;20.50;54.20;;;;;;1546419;75;1536;-76
2024/03/14 12:04:06;;;;;;;;;;;20.40;54.10;;;;;;1555888;76;1513;-74
2024/03/14 12:06:07;;;;;;;;;;;20.40;54.20;;;;;;1553846;75;987;-75
2024/03/14 12:08:10;;;;;;;;;;;20.40;54.20;;;;;;1547497;75;737;-80
2024/03/14 12:10:15;;;;;;;;;;;20.50;54.30;;;;;;1552495;76;784;-76
2024/03/14 12:12:16;;;;;;;;;;;20.40;54.20;;;;;;1557287;76;1599;-75